createdAt,value
2018-04-14T00:02:43.097Z,133.07
2018-04-14T00:05:52.583Z,126.80
2018-04-14T00:09:02.771Z,122.23
2018-04-14T00:12:12.687Z,129.37
2018-04-14T00:15:22.553Z,129.37
2018-04-14T00:18:32.375Z,123.17
2018-04-14T00:21:41.877Z,127.33
2018-04-14T00:24:52.053Z,133.93
2018-04-14T00:28:02.320Z,126.37
2018-04-14T00:31:12.410Z,123.53
2018-04-14T00:34:22.639Z,132.83
2018-04-14T00:37:32.605Z,127.30
2018-04-14T00:40:41.891Z,119.50
2018-04-14T00:43:51.807Z,126.57
2018-04-14T00:47:01.692Z,130.47
2018-04-14T00:50:11.276Z,126.43
2018-04-14T00:53:39.273Z,128.97
2018-04-14T00:56:48.815Z,123.50
2018-04-14T00:59:58.447Z,118.03
2018-04-14T01:03:07.871Z,120.13
2018-04-14T01:06:18.199Z,128.60
2018-04-14T01:09:28.667Z,126.33
2018-04-14T01:12:38.066Z,128.57
2018-04-14T01:15:47.907Z,121.50
2018-04-14T01:18:58.148Z,122.17
2018-04-14T01:22:07.604Z,124.93
2018-04-14T01:25:20.864Z,124.87
2018-04-14T01:28:30.224Z,115.23
2018-04-14T01:31:39.619Z,110.20
2018-04-14T01:34:49.477Z,118.83
2018-04-14T01:37:58.919Z,114.17
2018-04-14T01:41:08.768Z,113.57
2018-04-14T01:44:19.001Z,107.93
2018-04-14T01:47:28.439Z,116.33
2018-04-14T01:50:39.228Z,112.07
2018-04-14T01:53:48.988Z,101.00
2018-04-14T01:56:58.453Z,101.10
2018-04-14T02:00:08.571Z,104.90
2018-04-14T02:03:18.225Z,96.47
2018-04-14T02:06:28.155Z,106.40
2018-04-14T02:09:38.471Z,98.07
2018-04-14T02:12:48.303Z,97.60
2018-04-14T02:15:57.704Z,95.10
2018-04-14T02:19:07.149Z,89.83
2018-04-14T02:22:16.648Z,91.03
2018-04-14T02:25:26.015Z,88.83
2018-04-14T02:28:35.456Z,95.80
2018-04-14T02:31:45.779Z,82.97
2018-04-14T02:34:55.315Z,86.20
2018-04-14T02:38:04.648Z,85.13
2018-04-14T02:41:14.539Z,89.80
2018-04-14T02:44:24.111Z,83.97
2018-04-14T02:47:33.547Z,75.23
2018-04-14T02:50:42.998Z,89.27
2018-04-14T02:53:54.410Z,86.07
2018-04-14T02:57:04.126Z,77.27
2018-04-14T03:00:14.371Z,76.40
2018-04-14T03:03:24.264Z,78.77
2018-04-14T03:06:33.878Z,79.77
2018-04-14T03:09:43.794Z,75.27
2018-04-14T03:12:53.636Z,76.63
2018-04-14T03:16:03.823Z,72.93
2018-04-14T03:19:14.120Z,76.90
2018-04-14T03:22:23.923Z,76.60
2018-04-14T03:25:33.396Z,87.57
2018-04-14T03:28:43.436Z,77.07
2018-04-14T03:31:53.739Z,80.53
2018-04-14T03:35:04.027Z,78.53
2018-04-14T03:38:14.219Z,73.67
2018-04-14T03:41:24.463Z,81.10
2018-04-14T03:44:33.954Z,86.27
2018-04-14T03:47:44.295Z,84.90
2018-04-14T03:50:54.465Z,71.30
2018-04-14T03:54:04.616Z,80.23
2018-04-14T03:57:14.583Z,82.20
2018-04-14T04:00:24.806Z,75.70
2018-04-14T04:03:34.157Z,78.57
2018-04-14T04:06:43.497Z,81.10
2018-04-14T04:09:53.387Z,80.00
2018-04-14T04:13:04.456Z,82.60
2018-04-14T04:16:13.911Z,77.20
2018-04-14T04:19:41.567Z,82.23
2018-04-14T04:23:09.399Z,79.33
2018-04-14T04:26:19.660Z,84.80
2018-04-14T04:29:29.183Z,82.03
2018-04-14T04:32:39.441Z,80.27
2018-04-14T04:35:48.803Z,78.90
2018-04-14T04:38:59.030Z,77.33
2018-04-14T04:42:08.916Z,84.97
2018-04-14T04:45:19.008Z,94.73
2018-04-14T04:48:28.914Z,82.80
2018-04-14T04:51:38.309Z,90.93
2018-04-14T04:54:48.677Z,88.80
2018-04-14T04:57:59.212Z,84.00
2018-04-14T05:01:09.049Z,94.27
2018-04-14T05:04:19.303Z,78.17
2018-04-14T05:07:30.171Z,73.70
2018-04-14T05:10:40.473Z,69.07
2018-04-14T05:13:49.875Z,84.07
2018-04-14T05:16:59.731Z,78.83
2018-04-14T05:20:09.633Z,76.57
2018-04-14T05:23:19.863Z,78.13
2018-04-14T05:26:29.711Z,79.13
2018-04-14T05:29:39.171Z,83.60
2018-04-14T05:32:48.804Z,82.90
2018-04-14T05:35:59.659Z,74.00
2018-04-14T05:39:09.119Z,80.10
2018-04-14T05:42:20.420Z,64.47
2018-04-14T05:45:30.659Z,76.60
2018-04-14T05:48:40.088Z,77.07
2018-04-14T05:51:49.528Z,70.80
2018-04-14T05:54:58.940Z,69.57
2018-04-14T05:58:09.647Z,66.90
2018-04-14T06:01:19.975Z,67.93
2018-04-14T06:04:29.775Z,68.13
2018-04-14T06:07:39.377Z,72.53
2018-04-14T06:10:49.847Z,63.63
2018-04-14T06:13:59.940Z,68.47
2018-04-14T06:17:09.365Z,64.37
2018-04-14T06:20:19.685Z,70.33
2018-04-14T06:23:29.285Z,67.77
2018-04-14T06:26:39.024Z,66.70
2018-04-14T06:29:48.487Z,70.47
2018-04-14T06:32:58.000Z,68.20
2018-04-14T06:36:08.770Z,65.27
2018-04-14T06:39:18.824Z,68.80
2018-04-14T06:42:28.166Z,69.43
2018-04-14T06:45:41.234Z,63.83
2018-04-14T06:48:51.859Z,64.67
2018-04-14T06:52:02.063Z,61.53
2018-04-14T06:55:11.419Z,65.03
2018-04-14T06:58:21.672Z,60.33
2018-04-14T07:01:31.481Z,58.57
2018-04-14T07:04:44.834Z,61.63
2018-04-14T07:07:54.181Z,59.90
2018-04-14T07:11:08.005Z,57.83
2018-04-14T07:14:18.212Z,58.73
2018-04-14T07:17:33.140Z,57.80
2018-04-14T07:20:42.580Z,44.97
2018-04-14T07:23:52.187Z,54.63
2018-04-14T07:27:02.441Z,61.10
2018-04-14T07:30:11.948Z,61.47
2018-04-14T07:33:21.292Z,61.77
2018-04-14T07:36:31.905Z,58.60
2018-04-14T07:39:49.795Z,56.37
2018-04-14T07:42:59.716Z,59.70
2018-04-14T07:46:10.164Z,56.47
2018-04-14T07:49:20.944Z,55.13
2018-04-14T07:52:30.547Z,57.33
2018-04-14T07:55:41.034Z,57.30
2018-04-14T07:58:51.273Z,46.97
2018-04-14T08:02:00.876Z,52.43
2018-04-14T08:05:11.980Z,54.53
2018-04-14T08:08:21.358Z,56.90
2018-04-14T08:11:32.184Z,48.33
2018-04-14T08:14:41.639Z,55.73
2018-04-14T08:17:51.547Z,40.17
2018-04-14T08:21:00.907Z,54.57
2018-04-14T08:24:10.573Z,59.07
2018-04-14T08:27:20.032Z,64.63
2018-04-14T08:30:29.425Z,61.47
2018-04-14T08:33:39.145Z,56.90
2018-04-14T08:36:48.993Z,59.30
2018-04-14T08:39:58.436Z,63.10
2018-04-14T08:43:08.644Z,60.97
2018-04-14T08:46:18.139Z,61.30
2018-04-14T08:49:27.979Z,56.40
2018-04-14T08:52:37.751Z,59.87
2018-04-14T08:55:47.251Z,64.20
2018-04-14T08:59:00.588Z,55.20
2018-04-14T09:02:10.043Z,62.67
2018-04-14T09:05:19.900Z,54.73
2018-04-14T09:08:29.399Z,54.97
2018-04-14T09:11:38.978Z,56.60
2018-04-14T09:14:48.697Z,56.27
2018-04-14T09:17:58.884Z,53.77
2018-04-14T09:21:08.564Z,58.70
2018-04-14T09:24:17.975Z,56.53
2018-04-14T09:27:28.566Z,49.17
2018-04-14T09:30:39.044Z,53.80
2018-04-14T09:33:48.670Z,53.23
2018-04-14T09:36:58.782Z,51.57
2018-04-14T09:40:08.611Z,53.10
2018-04-14T09:43:18.356Z,54.43
2018-04-14T09:46:27.903Z,53.03
2018-04-14T09:49:37.709Z,56.43
2018-04-14T09:52:47.625Z,52.87
2018-04-14T09:55:59.160Z,50.27
2018-04-14T09:59:09.337Z,47.63
2018-04-14T10:02:19.604Z,44.93
2018-04-14T10:05:29.470Z,50.17
2018-04-14T10:08:39.688Z,43.20
2018-04-14T10:11:50.085Z,46.87
2018-04-14T10:14:59.609Z,50.63
2018-04-14T10:18:10.148Z,50.60
2018-04-14T10:21:19.513Z,50.00
2018-04-14T10:24:29.820Z,51.97
2018-04-14T10:27:40.052Z,51.10
2018-04-14T10:30:49.864Z,48.37
2018-04-14T10:34:00.107Z,52.27
2018-04-14T10:37:10.380Z,51.60
2018-04-14T10:40:23.833Z,54.57
2018-04-14T10:43:33.200Z,55.23
2018-04-14T10:46:42.824Z,54.03
2018-04-14T10:49:53.685Z,46.90
2018-04-14T10:53:03.145Z,58.87
2018-04-14T10:56:14.235Z,51.27
2018-04-14T10:59:23.676Z,54.80
2018-04-14T11:02:33.524Z,49.73
2018-04-14T11:05:42.951Z,56.47
2018-04-14T11:08:53.008Z,53.40
2018-04-14T11:12:06.505Z,53.70
2018-04-14T11:15:16.048Z,48.77
2018-04-14T11:18:26.540Z,50.60
2018-04-14T11:21:36.135Z,57.33
2018-04-14T11:24:45.476Z,52.87
2018-04-14T11:27:55.226Z,49.47
2018-04-14T11:31:05.647Z,50.77
2018-04-14T11:34:15.893Z,56.33
2018-04-14T11:37:25.465Z,57.07
2018-04-14T11:40:35.032Z,51.23
2018-04-14T11:43:45.684Z,50.60
2018-04-14T11:46:55.905Z,50.33
2018-04-14T11:50:05.958Z,56.40
2018-04-14T11:53:16.219Z,54.63
2018-04-14T11:56:26.697Z,56.83
2018-04-14T11:59:36.916Z,49.10
2018-04-14T12:02:46.395Z,53.17
2018-04-14T12:05:56.009Z,49.53
2018-04-14T12:09:06.341Z,49.10
2018-04-14T12:12:16.136Z,52.53
2018-04-14T12:15:25.579Z,44.90
2018-04-14T12:18:35.880Z,49.37
2018-04-14T12:21:45.275Z,50.37
2018-04-14T12:24:55.179Z,55.90
2018-04-14T12:28:04.824Z,55.20
2018-04-14T12:31:14.175Z,52.20
2018-04-14T12:34:24.419Z,54.43
2018-04-14T12:37:34.811Z,56.00
2018-04-14T12:40:44.947Z,54.40
2018-04-14T12:43:54.833Z,41.87
2018-04-14T12:47:05.112Z,55.20
2018-04-14T12:50:14.910Z,52.63
2018-04-14T12:53:24.714Z,56.03
2018-04-14T12:56:35.081Z,60.27
2018-04-14T12:59:45.344Z,50.20
2018-04-14T13:02:55.633Z,54.03
2018-04-14T13:06:05.959Z,56.83
2018-04-14T13:09:15.323Z,56.50
2018-04-14T13:12:24.763Z,52.40
2018-04-14T13:15:34.216Z,54.90
2018-04-14T13:18:44.416Z,47.97
2018-04-14T13:21:53.842Z,53.73
2018-04-14T13:25:03.492Z,57.37
2018-04-14T13:28:12.944Z,53.77
2018-04-14T13:31:22.367Z,56.03
2018-04-14T13:34:33.883Z,47.63
2018-04-14T13:37:44.133Z,52.93
2018-04-14T13:40:53.549Z,52.67
2018-04-14T13:44:03.535Z,51.67
2018-04-14T13:47:13.335Z,51.67
2018-04-14T13:50:23.519Z,50.80
2018-04-14T13:53:33.388Z,53.33
2018-04-14T13:56:42.796Z,49.70
2018-04-14T13:59:52.492Z,46.70
2018-04-14T14:03:02.539Z,46.80
2018-04-14T14:06:12.884Z,46.30
2018-04-14T14:09:23.015Z,51.97
2018-04-14T14:12:32.860Z,49.77
2018-04-14T14:15:42.771Z,48.97
2018-04-14T14:18:53.263Z,51.17
2018-04-14T14:22:03.571Z,51.33
2018-04-14T14:25:13.489Z,50.80
2018-04-14T14:28:23.363Z,55.23
2018-04-14T14:31:32.861Z,52.40
2018-04-14T14:34:43.205Z,50.50
2018-04-14T14:37:52.908Z,48.53
2018-04-14T14:41:02.729Z,48.90
2018-04-14T14:44:12.186Z,50.43
2018-04-14T14:47:22.467Z,48.40
2018-04-14T14:50:31.925Z,49.03
2018-04-14T14:53:41.784Z,48.67
2018-04-14T14:56:51.198Z,50.93
2018-04-14T15:00:01.429Z,52.17
2018-04-14T15:03:11.281Z,51.60
2018-04-14T15:06:20.774Z,51.93
2018-04-14T15:09:30.997Z,51.03
2018-04-14T15:12:41.227Z,52.40
2018-04-14T15:15:50.684Z,53.93
2018-04-14T15:19:00.379Z,52.27
2018-04-14T15:22:09.811Z,53.33
2018-04-14T15:25:20.088Z,54.10
2018-04-14T15:28:30.095Z,49.90
2018-04-14T15:31:39.949Z,53.47
2018-04-14T15:34:49.807Z,57.87
2018-04-14T15:37:59.239Z,50.67
2018-04-14T15:41:08.969Z,50.90
2018-04-14T15:44:18.743Z,46.37
2018-04-14T15:47:29.394Z,48.40
2018-04-14T15:50:39.782Z,49.00
2018-04-14T15:53:50.624Z,52.77
2018-04-14T15:57:00.787Z,48.33
2018-04-14T16:00:10.736Z,51.07
2018-04-14T16:03:21.552Z,61.40
2018-04-14T16:06:31.042Z,51.87
2018-04-14T16:09:40.856Z,55.35
2018-04-14T16:12:50.401Z,51.43
2018-04-14T16:16:01.072Z,53.50
2018-04-14T16:19:17.417Z,50.07
2018-04-14T16:22:28.523Z,52.60
2018-04-14T16:25:42.172Z,45.97
2018-04-14T16:28:52.297Z,50.23
2018-04-14T16:32:01.907Z,51.97
2018-04-14T16:35:11.800Z,50.90
2018-04-14T16:38:22.067Z,46.23
2018-04-14T16:41:31.950Z,46.77
2018-04-14T16:44:42.377Z,49.03
2018-04-14T16:47:52.626Z,46.40
2018-04-14T16:51:02.880Z,49.03
2018-04-14T16:54:12.436Z,48.27
2018-04-14T16:57:21.913Z,54.67
2018-04-14T17:00:32.181Z,51.90
2018-04-14T17:03:41.626Z,48.10
2018-04-14T17:06:51.858Z,50.87
2018-04-14T17:10:01.248Z,48.47
2018-04-14T17:13:10.957Z,50.73
2018-04-14T17:16:20.296Z,47.73
2018-04-14T17:19:30.033Z,49.07
2018-04-14T17:22:40.883Z,55.00
2018-04-14T17:25:50.400Z,52.13
2018-04-14T17:28:59.719Z,52.43
2018-04-14T17:32:09.799Z,54.53
2018-04-14T17:35:19.107Z,47.03
2018-04-14T17:38:28.964Z,53.10
2018-04-14T17:41:38.900Z,48.30
2018-04-14T17:44:48.360Z,49.20
2018-04-14T17:47:58.823Z,49.53
2018-04-14T17:51:08.913Z,49.43
2018-04-14T17:54:18.298Z,50.50
2018-04-14T17:57:28.149Z,45.30
2018-04-14T18:00:37.520Z,45.47
2018-04-14T18:03:47.240Z,50.27
2018-04-14T18:06:57.373Z,42.43
2018-04-14T18:10:06.772Z,45.70
2018-04-14T18:13:17.180Z,54.43
2018-04-14T18:16:26.385Z,49.53
2018-04-14T18:19:36.299Z,50.27
2018-04-14T18:22:46.328Z,56.53
2018-04-14T18:25:55.765Z,59.73
2018-04-14T18:29:05.137Z,48.87
2018-04-14T18:32:15.320Z,48.67
2018-04-14T18:35:24.677Z,48.07
2018-04-14T18:38:34.015Z,47.93
2018-04-14T18:41:43.331Z,47.63
2018-04-14T18:44:52.763Z,46.10
2018-04-14T18:48:02.615Z,46.20
2018-04-14T18:51:12.556Z,54.20
2018-04-14T18:54:21.991Z,47.33
2018-04-14T18:57:31.755Z,49.13
2018-04-14T19:00:41.101Z,42.83
2018-04-14T19:03:51.287Z,43.70
2018-04-14T19:07:00.662Z,46.73
2018-04-14T19:10:10.518Z,49.40
2018-04-14T19:13:19.796Z,48.37
2018-04-14T19:16:29.539Z,48.33
2018-04-14T19:19:39.704Z,51.83
2018-04-14T19:22:49.159Z,48.17
2018-04-14T19:25:58.615Z,46.90
2018-04-14T19:29:08.109Z,44.30
2018-04-14T19:32:18.206Z,48.27
2018-04-14T19:35:28.251Z,46.23
2018-04-14T19:38:37.572Z,45.13
2018-04-14T19:41:47.513Z,45.63
2018-04-14T19:44:57.208Z,49.03
2018-04-14T19:48:06.630Z,44.97
2018-04-14T19:51:20.024Z,48.37
2018-04-14T19:54:30.156Z,49.97
2018-04-14T19:57:39.456Z,46.67
2018-04-14T20:00:48.893Z,48.07
2018-04-14T20:03:58.382Z,49.07
2018-04-14T20:07:07.974Z,43.90
2018-04-14T20:10:17.249Z,48.60
2018-04-14T20:13:26.997Z,45.87
2018-04-14T20:16:36.800Z,50.63
2018-04-14T20:19:46.153Z,50.37
2018-04-14T20:22:56.485Z,52.90
2018-04-14T20:26:06.125Z,50.80
2018-04-14T20:29:16.360Z,55.40
2018-04-14T20:32:25.721Z,53.97
2018-04-14T20:35:35.163Z,50.47
2018-04-14T20:38:45.560Z,55.70
2018-04-14T20:41:55.277Z,49.63
2018-04-14T20:45:05.321Z,50.20
2018-04-14T20:48:14.627Z,50.93
2018-04-14T20:51:24.048Z,53.87
2018-04-14T20:54:34.383Z,56.03
2018-04-14T20:57:43.861Z,57.93
2018-04-14T21:00:53.214Z,49.30
2018-04-14T21:04:02.555Z,52.30
2018-04-14T21:07:11.989Z,56.33
2018-04-14T21:10:21.284Z,56.57
2018-04-14T21:13:31.686Z,52.10
2018-04-14T21:16:41.191Z,55.43
2018-04-14T21:19:51.472Z,60.73
2018-04-14T21:23:00.971Z,54.40
2018-04-14T21:26:11.116Z,61.03
2018-04-14T21:29:21.217Z,59.10
2018-04-14T21:32:31.609Z,54.37
2018-04-14T21:35:41.608Z,60.27
2018-04-14T21:38:51.044Z,59.87
2018-04-14T21:42:01.362Z,59.57
2018-04-14T21:45:10.788Z,55.53
2018-04-14T21:48:20.107Z,56.27
2018-04-14T21:51:30.198Z,54.83
2018-04-14T21:54:40.333Z,58.73
2018-04-14T21:57:49.635Z,55.40
2018-04-14T22:00:59.688Z,59.63
2018-04-14T22:04:09.946Z,55.73
2018-04-14T22:07:19.923Z,63.43
2018-04-14T22:10:29.675Z,57.30
2018-04-14T22:13:39.815Z,59.13
2018-04-14T22:16:49.312Z,57.03
2018-04-14T22:19:58.816Z,60.17
2018-04-14T22:23:08.121Z,53.67
2018-04-14T22:26:19.180Z,59.30
2018-04-14T22:29:28.747Z,53.50
2018-04-14T22:32:38.931Z,55.30
2018-04-14T22:35:48.348Z,69.77
2018-04-14T22:38:57.953Z,78.10
2018-04-14T22:42:08.002Z,57.10
2018-04-14T22:45:18.136Z,55.50
2018-04-14T22:48:27.608Z,55.83
2018-04-14T22:51:36.836Z,54.47
2018-04-14T22:54:46.664Z,55.93
2018-04-14T22:57:55.944Z,56.20
2018-04-14T23:01:05.372Z,58.03
2018-04-14T23:04:15.359Z,61.10
2018-04-14T23:07:24.651Z,64.17
2018-04-14T23:10:34.852Z,61.30
2018-04-14T23:13:44.984Z,63.57
2018-04-14T23:16:54.337Z,58.93
2018-04-14T23:20:03.631Z,61.20
2018-04-14T23:23:13.479Z,63.10
2018-04-14T23:26:23.360Z,63.93
2018-04-14T23:29:32.832Z,58.50
2018-04-14T23:32:42.187Z,62.73
2018-04-14T23:35:52.366Z,58.80
2018-04-14T23:39:02.496Z,59.13
2018-04-14T23:42:11.967Z,62.70
2018-04-14T23:45:21.852Z,61.17
2018-04-14T23:48:31.212Z,57.70
2018-04-14T23:51:40.473Z,61.33
2018-04-14T23:54:49.821Z,62.27
2018-04-14T23:57:59.237Z,51.03
